createdAt,value
2022-11-06T00:03:46.506Z,2.40
2022-11-06T00:08:49.843Z,2.30
2022-11-06T00:13:53.328Z,2.20
2022-11-06T00:18:56.830Z,2.10
2022-11-06T00:24:02.557Z,2.10
2022-11-06T00:29:07.075Z,2.10
2022-11-06T00:34:11.426Z,2.00
2022-11-06T00:39:14.856Z,2.00
2022-11-06T00:44:18.198Z,1.90
2022-11-06T00:49:21.552Z,1.80
2022-11-06T00:54:25.367Z,1.70
2022-11-06T00:59:28.868Z,1.70
2022-11-06T01:04:32.268Z,1.60
2022-11-06T01:09:35.615Z,1.50
2022-11-06T01:14:41.181Z,1.50
2022-11-06T01:19:44.727Z,1.40
2022-11-06T01:24:48.138Z,1.40
2022-11-06T01:29:51.657Z,1.40
2022-11-06T01:34:54.955Z,1.30
2022-11-06T01:39:58.297Z,1.30
2022-11-06T01:45:20.746Z,1.30
2022-11-06T01:50:24.746Z,1.30
2022-11-06T01:55:36.408Z,1.20
2022-11-06T02:00:39.863Z,1.20
2022-11-06T02:05:43.527Z,1.20
2022-11-06T02:10:47.406Z,1.20
2022-11-06T02:16:03.594Z,1.10
2022-11-06T02:21:36.528Z,1.00
2022-11-06T02:26:49.435Z,1.00
2022-11-06T02:31:56.391Z,0.90
2022-11-06T02:37:08.635Z,0.90
2022-11-06T02:42:16.135Z,0.90
2022-11-06T02:47:21.326Z,0.90
2022-11-06T02:52:40.285Z,0.80
2022-11-06T02:57:50.707Z,0.80
2022-11-06T03:03:06.601Z,0.80
2022-11-06T03:08:25.858Z,0.80
2022-11-06T03:13:39.886Z,0.80
2022-11-06T03:18:57.034Z,0.70
2022-11-06T03:24:13.628Z,0.60
2022-11-06T03:29:51.246Z,0.60
2022-11-06T03:35:24.214Z,0.60
2022-11-06T03:40:32.236Z,0.60
2022-11-06T03:45:36.974Z,0.60
2022-11-06T03:51:04.187Z,0.50
2022-11-06T03:56:15.464Z,0.50
2022-11-06T04:01:24.775Z,0.60
2022-11-06T04:06:36.047Z,0.60
2022-11-06T04:12:00.458Z,0.40
2022-11-06T04:17:08.224Z,0.30
2022-11-06T04:22:29.599Z,0.40
2022-11-06T04:28:23.523Z,0.30
2022-11-06T04:33:30.285Z,0.30
2022-11-06T04:38:36.467Z,0.30
2022-11-06T04:43:42.769Z,0.40
2022-11-06T04:48:47.879Z,0.40
2022-11-06T04:53:52.975Z,0.40
2022-11-06T04:58:56.441Z,0.30
2022-11-06T05:04:00.735Z,0.30
2022-11-06T05:09:05.253Z,0.20
2022-11-06T05:14:08.699Z,0.20
2022-11-06T05:19:12.320Z,0.20
2022-11-06T05:24:16.059Z,0.20
2022-11-06T05:29:19.469Z,0.20
2022-11-06T05:34:22.819Z,0.10
2022-11-06T05:39:26.372Z,0.10
2022-11-06T05:44:29.727Z,0.10
2022-11-06T05:49:33.125Z,0.10
2022-11-06T05:54:36.522Z,0.10
2022-11-06T05:59:39.917Z,0.10
2022-11-06T06:04:43.289Z,0.10
2022-11-06T06:09:46.490Z,0.10
2022-11-06T06:14:50.785Z,0.10
2022-11-06T06:19:54.656Z,0.10
2022-11-06T06:24:57.814Z,0.10
2022-11-06T06:30:01.931Z,0.20
2022-11-06T06:35:06.031Z,0.20
2022-11-06T06:40:11.099Z,0.20
2022-11-06T06:45:14.513Z,0.30
2022-11-06T06:50:17.998Z,0.30
2022-11-06T06:55:21.746Z,0.30
2022-11-06T07:00:25.259Z,0.40
2022-11-06T07:05:28.698Z,0.30
2022-11-06T07:10:32.376Z,0.30
2022-11-06T07:15:36.073Z,0.40
2022-11-06T07:20:42.941Z,0.40
2022-11-06T07:25:51.758Z,0.50
2022-11-06T07:31:02.882Z,0.70
2022-11-06T07:36:08.759Z,0.80
2022-11-06T07:41:14.595Z,0.90
2022-11-06T07:46:18.859Z,1.00
2022-11-06T07:51:22.429Z,1.20
2022-11-06T07:56:25.728Z,1.30
2022-11-06T08:01:29.379Z,1.50
2022-11-06T08:06:32.660Z,1.70
2022-11-06T08:11:36.430Z,1.90
2022-11-06T08:16:39.569Z,2.20
2022-11-06T08:21:43.546Z,2.40
2022-11-06T08:26:46.638Z,2.70
2022-11-06T08:31:52.697Z,2.90
2022-11-06T08:36:58.229Z,3.10
2022-11-06T08:42:02.328Z,3.40
2022-11-06T08:47:05.943Z,3.70
2022-11-06T08:52:09.359Z,4.00
2022-11-06T08:57:12.487Z,4.40
2022-11-06T09:02:16.273Z,4.60
2022-11-06T09:07:19.975Z,4.80
2022-11-06T09:12:24.382Z,5.00
2022-11-06T09:17:29.100Z,5.30
2022-11-06T09:22:32.529Z,5.70
2022-11-06T09:27:47.119Z,6.10
2022-11-06T09:32:56.097Z,6.80
2022-11-06T09:38:08.455Z,7.40
2022-11-06T09:44:06.179Z,7.80
2022-11-06T09:49:36.543Z,8.10
2022-11-06T09:55:00.109Z,8.50
2022-11-06T10:00:06.760Z,8.80
2022-11-06T10:05:27.663Z,9.20
2022-11-06T10:10:59.099Z,9.50
2022-11-06T10:16:11.549Z,9.90
2022-11-06T10:21:21.028Z,10.10
2022-11-06T10:26:48.784Z,10.30
2022-11-06T10:32:04.210Z,10.60
2022-11-06T10:37:14.518Z,10.70
2022-11-06T10:42:20.679Z,10.80
2022-11-06T10:47:29.943Z,11.00
2022-11-06T10:52:53.142Z,11.10
2022-11-06T10:58:16.554Z,11.30
2022-11-06T11:03:36.276Z,11.30
2022-11-06T11:08:43.694Z,11.40
2022-11-06T11:14:11.689Z,11.40
2022-11-06T11:19:35.745Z,11.40
2022-11-06T11:25:00.799Z,11.40
2022-11-06T11:30:06.077Z,11.50
2022-11-06T11:35:12.302Z,11.60
2022-11-06T11:40:37.084Z,11.70
2022-11-06T11:45:40.469Z,11.80
2022-11-06T11:50:43.919Z,11.80
2022-11-06T11:55:50.189Z,11.90
2022-11-06T12:00:55.931Z,12.00
2022-11-06T12:06:11.834Z,12.10
2022-11-06T12:11:21.304Z,12.10
2022-11-06T12:16:24.746Z,12.00
2022-11-06T12:21:38.065Z,12.00
2022-11-06T12:26:53.156Z,12.10
2022-11-06T12:32:18.583Z,12.10
2022-11-06T12:37:43.287Z,12.10
2022-11-06T12:43:13.217Z,12.20
2022-11-06T12:48:30.358Z,12.10
2022-11-06T12:53:47.351Z,12.10
2022-11-06T12:59:23.124Z,12.10
2022-11-06T13:04:54.144Z,11.90
2022-11-06T13:10:04.128Z,11.90
2022-11-06T13:15:26.911Z,11.90
2022-11-06T13:20:40.873Z,12.00
2022-11-06T13:26:13.739Z,12.20
2022-11-06T13:31:21.687Z,12.60
2022-11-06T13:36:27.409Z,12.70
2022-11-06T13:41:32.716Z,12.70
2022-11-06T13:47:08.823Z,12.70
2022-11-06T13:52:55.858Z,12.70
2022-11-06T13:58:15.618Z,12.60
2022-11-06T14:03:54.157Z,12.30
2022-11-06T14:09:02.728Z,12.00
2022-11-06T14:14:24.591Z,11.60
2022-11-06T14:19:31.715Z,11.40
2022-11-06T14:24:45.488Z,11.10
2022-11-06T14:29:59.691Z,10.80
2022-11-06T14:35:33.506Z,10.50
2022-11-06T14:40:39.859Z,10.30
2022-11-06T14:46:05.256Z,10.10
2022-11-06T14:51:13.660Z,9.90
2022-11-06T14:56:52.794Z,9.80
2022-11-06T15:02:14.066Z,9.70
2022-11-06T15:08:05.973Z,9.50
2022-11-06T15:13:19.779Z,9.40
2022-11-06T15:18:25.518Z,9.20
2022-11-06T15:23:53.003Z,9.00
2022-11-06T15:29:03.868Z,8.70
2022-11-06T15:34:23.487Z,8.50
2022-11-06T15:39:31.368Z,8.30
2022-11-06T15:44:41.319Z,8.10
2022-11-06T15:49:45.338Z,8.00
2022-11-06T15:54:56.801Z,7.80
2022-11-06T16:00:16.967Z,7.60
2022-11-06T16:05:22.511Z,7.30
2022-11-06T16:10:27.408Z,7.00
2022-11-06T16:15:51.318Z,6.80
2022-11-06T16:21:02.174Z,6.60
2022-11-06T16:26:09.474Z,6.40
2022-11-06T16:31:30.431Z,6.30
2022-11-06T16:37:01.055Z,6.10
2022-11-06T16:42:27.440Z,5.90
2022-11-06T16:47:32.826Z,5.70
2022-11-06T16:52:41.060Z,5.60
2022-11-06T16:57:58.639Z,5.40
2022-11-06T17:03:06.308Z,5.20
2022-11-06T17:08:25.564Z,5.00
2022-11-06T17:13:34.615Z,4.90
2022-11-06T17:18:40.565Z,4.70
2022-11-06T17:23:46.788Z,4.50
2022-11-06T17:28:52.881Z,4.50
2022-11-06T17:33:59.701Z,4.30
2022-11-06T17:39:08.961Z,4.10
2022-11-06T17:44:26.740Z,3.90
2022-11-06T17:49:33.419Z,3.80
2022-11-06T17:54:40.679Z,3.80
2022-11-06T17:59:45.280Z,3.80
2022-11-06T18:04:54.128Z,3.80
2022-11-06T18:09:58.619Z,3.80
2022-11-06T18:15:03.349Z,3.80
2022-11-06T18:20:11.898Z,3.80
2022-11-06T18:25:17.341Z,3.70
2022-11-06T18:30:23.698Z,3.70
2022-11-06T18:35:29.977Z,3.70
2022-11-06T18:40:36.889Z,3.80
2022-11-06T18:45:42.736Z,3.80
2022-11-06T18:50:50.252Z,4.00
2022-11-06T18:55:54.729Z,4.20
2022-11-06T19:01:01.802Z,4.50
2022-11-06T19:06:10.759Z,4.70
2022-11-06T19:11:17.079Z,4.90
2022-11-06T19:16:22.188Z,5.00
2022-11-06T19:21:28.139Z,5.00
2022-11-06T19:26:33.777Z,5.00
2022-11-06T19:31:41.841Z,4.90
2022-11-06T19:36:48.549Z,4.90
2022-11-06T19:41:53.289Z,4.80
2022-11-06T19:46:59.451Z,4.70
2022-11-06T19:52:41.790Z,4.30
2022-11-06T19:57:33.652Z,3.80
2022-11-06T20:02:42.537Z,3.60
2022-11-06T20:07:49.678Z,3.40
2022-11-06T20:12:55.089Z,3.40
2022-11-06T20:18:00.580Z,3.40
2022-11-06T20:23:06.098Z,3.30
2022-11-06T20:28:11.928Z,3.20
2022-11-06T20:33:20.019Z,3.10
2022-11-06T20:38:26.199Z,3.00
2022-11-06T20:43:30.653Z,2.90
2022-11-06T20:48:36.760Z,2.80
2022-11-06T20:53:42.257Z,2.60
2022-11-06T20:58:46.601Z,2.50
2022-11-06T21:03:52.638Z,2.50
2022-11-06T21:08:58.170Z,2.40
2022-11-06T21:14:02.515Z,2.40
2022-11-06T21:19:07.528Z,2.30
2022-11-06T21:24:12.817Z,2.10
2022-11-06T21:29:19.495Z,2.00
2022-11-06T21:34:23.469Z,2.00
2022-11-06T21:39:29.535Z,2.00
2022-11-06T21:44:37.077Z,2.00
2022-11-06T21:49:40.939Z,1.80
2022-11-06T21:55:02.797Z,1.80
2022-11-06T22:00:08.615Z,1.80
2022-11-06T22:05:14.014Z,1.80
2022-11-06T22:10:17.579Z,1.70
2022-11-06T22:15:20.698Z,1.70
2022-11-06T22:20:23.828Z,1.80
2022-11-06T22:25:27.229Z,1.80
2022-11-06T22:30:30.878Z,1.80
2022-11-06T22:35:34.338Z,1.90
2022-11-06T22:40:38.086Z,1.90
2022-11-06T22:45:41.870Z,1.90
2022-11-06T22:50:45.598Z,2.00
2022-11-06T22:55:49.869Z,2.00
2022-11-06T23:00:54.342Z,2.00
2022-11-06T23:05:58.881Z,1.90
2022-11-06T23:11:08.609Z,1.90
2022-11-06T23:16:18.918Z,1.80
2022-11-06T23:21:22.258Z,1.70
2022-11-06T23:26:25.771Z,1.70
2022-11-06T23:31:29.210Z,1.50
2022-11-06T23:36:32.598Z,1.40
2022-11-06T23:41:46.566Z,1.30
2022-11-06T23:46:49.803Z,1.30
2022-11-06T23:51:53.528Z,1.20
2022-11-06T23:56:57.409Z,1.30
